createdAt,value
2022-10-02T00:01:27.859Z,8.20
2022-10-02T00:03:56.608Z,6.97
2022-10-02T00:06:27.014Z,6.03
2022-10-02T00:08:59.523Z,7.20
2022-10-02T00:11:33.145Z,8.30
2022-10-02T00:14:05.398Z,7.33
2022-10-02T00:16:36.865Z,6.67
2022-10-02T00:19:05.203Z,7.10
2022-10-02T00:21:48.866Z,6.37
2022-10-02T00:24:23.326Z,6.27
2022-10-02T00:26:58.039Z,5.80
2022-10-02T00:29:38.884Z,4.97
2022-10-02T00:32:21.494Z,5.80
2022-10-02T00:35:17.966Z,5.57
2022-10-02T00:37:55.291Z,5.00
2022-10-02T00:40:43.922Z,5.50
2022-10-02T00:43:32.055Z,7.43
2022-10-02T00:46:33.560Z,5.00
2022-10-02T00:49:15.733Z,5.07
2022-10-02T00:51:55.888Z,4.80
2022-10-02T00:54:49.210Z,4.90
2022-10-02T00:57:31.394Z,4.67
2022-10-02T01:00:07.278Z,5.80
2022-10-02T01:03:09.637Z,5.97
2022-10-02T01:05:38.215Z,4.93
2022-10-02T01:08:06.313Z,5.23
2022-10-02T01:10:36.201Z,5.77
2022-10-02T01:13:04.266Z,5.87
2022-10-02T01:15:35.481Z,5.00
2022-10-02T01:18:04.199Z,5.07
2022-10-02T01:20:38.787Z,4.93
2022-10-02T01:23:31.069Z,5.10
2022-10-02T01:26:00.965Z,5.30
2022-10-02T01:28:29.621Z,4.70
2022-10-02T01:31:02.499Z,4.53
2022-10-02T01:33:30.810Z,4.17
2022-10-02T01:35:58.977Z,4.73
2022-10-02T01:38:27.802Z,4.60
2022-10-02T01:40:55.730Z,4.97
2022-10-02T01:43:29.444Z,4.57
2022-10-02T01:46:08.768Z,4.97
2022-10-02T01:48:44.350Z,5.03
2022-10-02T01:51:28.318Z,5.17
2022-10-02T01:54:09.464Z,4.87
2022-10-02T01:56:49.520Z,4.70
2022-10-02T01:59:28.125Z,5.10
2022-10-02T02:02:11.997Z,4.70
2022-10-02T02:04:48.218Z,5.50
2022-10-02T02:07:28.234Z,5.90
2022-10-02T02:10:01.544Z,5.43
2022-10-02T02:12:40.228Z,5.53
2022-10-02T02:15:14.125Z,5.50
2022-10-02T02:17:49.171Z,5.23
2022-10-02T02:20:22.073Z,4.67
2022-10-02T02:22:54.308Z,4.70
2022-10-02T02:25:26.659Z,4.30
2022-10-02T02:27:58.217Z,4.60
2022-10-02T02:30:28.668Z,4.47
2022-10-02T02:33:02.973Z,5.03
2022-10-02T02:35:35.813Z,6.67
2022-10-02T02:38:07.480Z,5.47
2022-10-02T02:40:39.718Z,5.60
2022-10-02T02:43:11.233Z,5.30
2022-10-02T02:45:48.507Z,5.03
2022-10-02T02:48:22.303Z,5.97
2022-10-02T02:50:54.676Z,6.33
2022-10-02T02:53:27.084Z,5.70
2022-10-02T02:55:58.740Z,6.80
2022-10-02T02:58:30.006Z,6.03
2022-10-02T03:00:59.459Z,5.73
2022-10-02T03:03:27.584Z,7.57
2022-10-02T03:06:03.320Z,7.00
2022-10-02T03:08:36.405Z,5.83
2022-10-02T03:11:14.189Z,5.70
2022-10-02T03:13:53.651Z,6.10
2022-10-02T03:16:36.651Z,6.23
2022-10-02T03:19:19.068Z,6.27
2022-10-02T03:21:55.811Z,6.20
2022-10-02T03:24:29.879Z,6.53
2022-10-02T03:27:05.521Z,6.60
2022-10-02T03:29:37.900Z,7.27
2022-10-02T03:32:09.503Z,8.00
2022-10-02T03:34:39.084Z,7.17
2022-10-02T03:37:08.176Z,7.40
2022-10-02T03:39:36.164Z,6.67
2022-10-02T03:42:04.404Z,5.97
2022-10-02T03:44:32.412Z,5.60
2022-10-02T03:47:00.356Z,5.43
2022-10-02T03:49:29.895Z,4.87
2022-10-02T03:51:57.856Z,4.57
2022-10-02T03:54:25.915Z,4.43
2022-10-02T03:56:56.777Z,4.07
2022-10-02T03:59:43.815Z,6.63
2022-10-02T04:02:22.351Z,4.37
2022-10-02T04:04:57.488Z,3.67
2022-10-02T04:07:31.835Z,3.63
2022-10-02T04:10:10.116Z,3.47
2022-10-02T04:12:41.919Z,3.40
2022-10-02T04:15:20.214Z,3.60
2022-10-02T04:17:51.775Z,3.40
2022-10-02T04:20:27.507Z,3.70
2022-10-02T04:23:03.099Z,3.30
2022-10-02T04:25:35.446Z,2.97
2022-10-02T04:28:07.326Z,2.80
2022-10-02T04:30:35.407Z,2.93
2022-10-02T04:33:12.939Z,3.23
2022-10-02T04:35:52.998Z,2.33
2022-10-02T04:38:38.819Z,2.60
2022-10-02T04:41:24.283Z,2.60
2022-10-02T04:44:05.459Z,2.50
2022-10-02T04:47:11.922Z,2.90
2022-10-02T04:50:11.732Z,2.57
2022-10-02T04:53:02.788Z,2.70
2022-10-02T04:56:00.738Z,2.70
2022-10-02T04:58:46.574Z,3.00
2022-10-02T05:01:24.490Z,2.97
2022-10-02T05:04:10.999Z,2.70
2022-10-02T05:06:54.190Z,2.50
2022-10-02T05:09:30.695Z,2.97
2022-10-02T05:12:32.111Z,3.00
2022-10-02T05:15:15.259Z,2.93
2022-10-02T05:18:07.693Z,3.00
2022-10-02T05:20:55.971Z,3.30
2022-10-02T05:23:36.665Z,3.20
2022-10-02T05:26:26.101Z,3.70
2022-10-02T05:29:13.038Z,3.17
2022-10-02T05:31:55.319Z,2.70
2022-10-02T05:34:38.706Z,3.40
2022-10-02T05:37:23.454Z,3.23
2022-10-02T05:39:57.217Z,3.33
2022-10-02T05:42:33.746Z,3.07
2022-10-02T05:45:04.497Z,3.53
2022-10-02T05:47:36.577Z,3.57
2022-10-02T05:50:15.421Z,4.50
2022-10-02T05:52:51.982Z,4.80
2022-10-02T05:55:24.229Z,4.07
2022-10-02T05:57:58.581Z,4.53
2022-10-02T06:00:33.632Z,4.07
2022-10-02T06:03:10.932Z,4.17
2022-10-02T06:05:47.225Z,4.30
2022-10-02T06:08:18.767Z,4.13
2022-10-02T06:10:50.266Z,3.03
2022-10-02T06:13:24.312Z,2.90
2022-10-02T06:15:56.020Z,3.80
2022-10-02T06:18:27.855Z,2.83
2022-10-02T06:21:00.557Z,3.00
2022-10-02T06:23:36.550Z,2.97
2022-10-02T06:26:10.642Z,2.80
2022-10-02T06:28:44.006Z,2.97
2022-10-02T06:31:17.068Z,2.87
2022-10-02T06:33:46.246Z,3.07
2022-10-02T06:36:49.941Z,3.60
2022-10-02T06:39:31.739Z,2.87
2022-10-02T06:42:11.393Z,2.67
2022-10-02T06:44:49.106Z,2.70
2022-10-02T06:47:34.293Z,2.73
2022-10-02T06:50:21.089Z,2.80
2022-10-02T06:52:56.698Z,3.00
2022-10-02T06:55:43.332Z,2.80
2022-10-02T06:58:26.734Z,2.50
2022-10-02T07:01:05.439Z,2.60
2022-10-02T07:03:49.502Z,2.50
2022-10-02T07:06:42.760Z,3.00
2022-10-02T07:09:40.498Z,2.80
2022-10-02T07:12:27.257Z,3.07
2022-10-02T07:15:10.993Z,2.90
2022-10-02T07:17:53.409Z,3.00
2022-10-02T07:20:35.580Z,3.17
2022-10-02T07:23:27.845Z,3.23
2022-10-02T07:26:21.470Z,4.13
2022-10-02T07:28:59.805Z,3.97
2022-10-02T07:31:41.671Z,3.63
2022-10-02T07:34:30.625Z,3.00
2022-10-02T07:37:10.812Z,3.10
2022-10-02T07:39:50.841Z,2.70
2022-10-02T07:42:37.462Z,3.10
2022-10-02T07:45:22.586Z,2.80
2022-10-02T07:48:15.217Z,4.60
2022-10-02T07:51:01.004Z,3.33
2022-10-02T07:53:39.080Z,2.73
2022-10-02T07:56:10.672Z,3.30
2022-10-02T07:58:42.892Z,3.00
2022-10-02T08:01:15.128Z,2.60
2022-10-02T08:03:49.872Z,2.53
2022-10-02T08:06:20.140Z,2.57
2022-10-02T08:08:53.205Z,2.70
2022-10-02T08:11:28.388Z,2.70
2022-10-02T08:14:00.244Z,3.63
2022-10-02T08:16:34.670Z,3.20
2022-10-02T08:19:05.653Z,2.97
2022-10-02T08:21:41.467Z,3.53
2022-10-02T08:24:14.893Z,3.13
2022-10-02T08:26:46.776Z,3.50
2022-10-02T08:29:20.711Z,3.20
2022-10-02T08:31:52.176Z,3.30
2022-10-02T08:34:22.271Z,3.73
2022-10-02T08:37:13.266Z,2.80
2022-10-02T08:40:22.299Z,2.57
2022-10-02T08:43:45.135Z,2.40
2022-10-02T08:46:38.159Z,2.37
2022-10-02T08:49:39.866Z,2.53
2022-10-02T08:52:42.414Z,2.80
2022-10-02T08:55:38.808Z,3.03
2022-10-02T08:58:48.254Z,3.30
2022-10-02T09:01:51.071Z,2.77
2022-10-02T09:05:03.676Z,2.93
2022-10-02T09:08:08.178Z,2.93
2022-10-02T09:11:06.119Z,2.40
2022-10-02T09:14:10.806Z,2.80
2022-10-02T09:16:58.375Z,2.80
2022-10-02T09:19:42.010Z,3.07
2022-10-02T09:22:32.130Z,2.80
2022-10-02T09:25:28.751Z,2.83
2022-10-02T09:28:32.103Z,3.07
2022-10-02T09:31:41.682Z,3.00
2022-10-02T09:34:34.068Z,3.37
2022-10-02T09:37:50.437Z,2.77
2022-10-02T09:40:55.394Z,3.00
2022-10-02T09:43:53.043Z,2.80
2022-10-02T09:46:52.918Z,3.10
2022-10-02T09:49:49.189Z,2.77
2022-10-02T09:53:08.136Z,2.80
2022-10-02T09:56:13.234Z,3.43
2022-10-02T09:59:28.398Z,3.10
2022-10-02T10:02:31.692Z,3.10
2022-10-02T10:05:34.411Z,2.90
2022-10-02T10:08:37.375Z,3.47
2022-10-02T10:11:29.335Z,3.53
2022-10-02T10:14:37.016Z,2.87
2022-10-02T10:17:41.910Z,3.10
2022-10-02T10:20:51.822Z,2.80
2022-10-02T10:23:57.735Z,3.00
2022-10-02T10:27:07.430Z,3.30
2022-10-02T10:30:04.530Z,2.70
2022-10-02T10:33:04.690Z,2.13
2022-10-02T10:35:52.503Z,2.40
2022-10-02T10:38:39.899Z,2.53
2022-10-02T10:41:32.467Z,2.43
2022-10-02T10:44:29.746Z,2.17
2022-10-02T10:47:23.066Z,2.47
2022-10-02T10:50:19.047Z,3.17
2022-10-02T10:53:14.458Z,2.73
2022-10-02T10:55:59.184Z,2.40
2022-10-02T10:58:44.862Z,3.50
2022-10-02T11:01:18.720Z,25.33
2022-10-02T11:04:09.838Z,16.67
2022-10-02T11:07:16.451Z,11.80
2022-10-02T11:10:09.470Z,2.37
2022-10-02T11:13:03.094Z,2.43
2022-10-02T11:16:09.011Z,2.40
2022-10-02T11:19:03.122Z,2.13
2022-10-02T11:21:59.085Z,2.20
2022-10-02T11:24:48.937Z,2.00
2022-10-02T11:27:31.614Z,1.60
2022-10-02T11:30:17.897Z,2.30
2022-10-02T11:33:10.746Z,2.47
2022-10-02T11:35:55.338Z,1.97
2022-10-02T11:38:55.026Z,2.63
2022-10-02T11:41:32.507Z,2.13
2022-10-02T11:44:12.143Z,2.30
2022-10-02T11:47:11.969Z,2.20
2022-10-02T11:49:59.158Z,2.20
2022-10-02T11:52:59.750Z,14.63
2022-10-02T11:55:43.822Z,2.67
2022-10-02T11:58:22.038Z,2.73
2022-10-02T12:01:08.841Z,1.87
2022-10-02T12:03:56.785Z,2.20
2022-10-02T12:06:49.088Z,2.30
2022-10-02T12:09:29.410Z,2.30
2022-10-02T12:12:12.111Z,2.50
2022-10-02T12:14:48.473Z,2.03
2022-10-02T12:17:32.189Z,2.10
2022-10-02T12:20:30.954Z,2.20
2022-10-02T12:23:25.979Z,2.60
2022-10-02T12:26:17.041Z,1.80
2022-10-02T12:28:56.837Z,2.20
2022-10-02T12:31:32.260Z,2.57
2022-10-02T12:34:08.829Z,1.63
2022-10-02T12:36:56.388Z,1.80
2022-10-02T12:39:43.508Z,1.60
2022-10-02T12:42:42.061Z,1.60
2022-10-02T12:45:28.239Z,1.50
2022-10-02T12:48:14.392Z,1.60
2022-10-02T12:51:05.391Z,1.47
2022-10-02T12:54:17.959Z,1.37
2022-10-02T12:57:38.892Z,1.63
2022-10-02T13:00:15.604Z,1.60
2022-10-02T13:03:14.929Z,1.67
2022-10-02T13:06:03.541Z,1.50
2022-10-02T13:08:52.409Z,1.53
2022-10-02T13:11:33.786Z,1.50
2022-10-02T13:14:22.360Z,1.40
2022-10-02T13:17:10.385Z,3.30
2022-10-02T13:19:49.539Z,2.20
2022-10-02T13:22:23.817Z,2.20
2022-10-02T13:25:04.259Z,1.40
2022-10-02T13:27:41.203Z,2.00
2022-10-02T13:30:16.540Z,1.80
2022-10-02T13:33:08.388Z,1.53
2022-10-02T13:35:51.788Z,1.80
2022-10-02T13:38:43.565Z,1.40
2022-10-02T13:41:22.859Z,1.70
2022-10-02T13:44:00.615Z,1.47
2022-10-02T13:46:45.159Z,1.97
2022-10-02T13:49:25.237Z,1.50
2022-10-02T13:51:59.331Z,1.93
2022-10-02T13:54:59.565Z,1.80
2022-10-02T13:57:44.895Z,2.07
2022-10-02T14:00:24.941Z,2.20
2022-10-02T14:03:08.043Z,1.90
2022-10-02T14:05:45.003Z,2.10
2022-10-02T14:08:55.328Z,2.10
2022-10-02T14:11:33.851Z,1.50
2022-10-02T14:14:16.467Z,3.27
2022-10-02T14:16:56.947Z,3.00
2022-10-02T14:19:52.860Z,3.50
2022-10-02T14:22:41.460Z,3.73
2022-10-02T14:25:28.923Z,2.77
2022-10-02T14:28:17.841Z,3.17
2022-10-02T14:31:02.393Z,3.57
2022-10-02T14:33:49.147Z,2.37
2022-10-02T14:36:22.146Z,1.90
2022-10-02T14:39:11.775Z,2.70
2022-10-02T14:41:52.782Z,3.17
2022-10-02T14:45:00.535Z,2.20
2022-10-02T14:47:46.014Z,2.00
2022-10-02T14:50:29.855Z,1.90
2022-10-02T14:53:21.633Z,1.93
2022-10-02T14:56:22.206Z,1.67
2022-10-02T14:59:09.792Z,1.47
2022-10-02T15:01:44.258Z,1.73
2022-10-02T15:04:31.753Z,1.63
2022-10-02T15:07:12.170Z,1.80
2022-10-02T15:10:09.490Z,2.50
2022-10-02T15:12:49.587Z,1.93
2022-10-02T15:15:24.027Z,1.80
2022-10-02T15:18:14.867Z,1.87
2022-10-02T15:20:59.410Z,1.70
2022-10-02T15:23:46.477Z,1.80
2022-10-02T15:26:35.899Z,1.80
2022-10-02T15:29:21.288Z,1.50
2022-10-02T15:32:21.304Z,1.90
2022-10-02T15:34:57.008Z,2.13
2022-10-02T15:37:29.529Z,1.53
2022-10-02T15:40:14.336Z,1.70
2022-10-02T15:42:50.140Z,1.90
2022-10-02T15:45:41.725Z,2.13
2022-10-02T15:48:52.399Z,4.93
2022-10-02T15:51:33.153Z,5.30
2022-10-02T15:54:14.501Z,9.73
2022-10-02T15:57:07.252Z,6.17
2022-10-02T15:59:51.388Z,2.47
2022-10-02T16:02:36.987Z,1.83
2022-10-02T16:05:21.802Z,2.40
2022-10-02T16:08:13.360Z,2.20
2022-10-02T16:11:01.784Z,3.00
2022-10-02T16:13:48.151Z,3.10
2022-10-02T16:16:47.366Z,3.20
2022-10-02T16:19:24.016Z,2.90
2022-10-02T16:22:12.290Z,3.57
2022-10-02T16:25:03.393Z,5.20
2022-10-02T16:27:48.616Z,8.03
2022-10-02T16:30:18.797Z,11.97
2022-10-02T16:33:11.029Z,8.97
2022-10-02T16:36:08.247Z,8.30
2022-10-02T16:38:48.548Z,7.30
2022-10-02T16:41:38.254Z,9.10
2022-10-02T16:44:25.315Z,6.83
2022-10-02T16:46:57.701Z,6.80
2022-10-02T16:49:33.144Z,8.63
2022-10-02T16:52:11.603Z,4.77
2022-10-02T16:54:46.781Z,4.00
2022-10-02T16:57:25.316Z,2.70
2022-10-02T17:00:02.239Z,3.80
2022-10-02T17:02:43.513Z,4.17
2022-10-02T17:05:24.750Z,3.80
2022-10-02T17:08:02.471Z,5.03
2022-10-02T17:10:39.173Z,5.30
2022-10-02T17:13:19.564Z,5.70
2022-10-02T17:15:53.070Z,5.67
2022-10-02T17:18:33.404Z,6.17
2022-10-02T17:21:12.856Z,7.53
2022-10-02T17:23:50.907Z,8.57
2022-10-02T17:26:30.827Z,8.47
2022-10-02T17:29:08.323Z,7.80
2022-10-02T17:31:46.122Z,7.93
2022-10-02T17:34:23.603Z,7.53
2022-10-02T17:37:07.095Z,7.30
2022-10-02T17:39:56.981Z,7.07
2022-10-02T17:42:41.192Z,7.80
2022-10-02T17:45:27.261Z,6.40
2022-10-02T17:48:05.903Z,6.33
2022-10-02T17:50:51.021Z,6.83
2022-10-02T17:53:52.737Z,6.90
2022-10-02T17:56:49.954Z,6.63
2022-10-02T17:59:45.592Z,6.37
2022-10-02T18:02:25.921Z,7.67
2022-10-02T18:05:14.174Z,7.17
2022-10-02T18:07:55.807Z,6.10
2022-10-02T18:10:32.216Z,7.37
2022-10-02T18:13:22.419Z,5.10
2022-10-02T18:16:22.308Z,5.33
2022-10-02T18:19:18.284Z,5.83
2022-10-02T18:21:57.365Z,6.17
2022-10-02T18:24:46.001Z,6.00
2022-10-02T18:27:37.693Z,5.73
2022-10-02T18:30:16.238Z,5.87
2022-10-02T18:33:17.194Z,5.53
2022-10-02T18:35:54.861Z,5.67
2022-10-02T18:38:31.029Z,5.20
2022-10-02T18:41:09.616Z,4.87
2022-10-02T18:44:09.264Z,5.27
2022-10-02T18:46:50.438Z,4.70
2022-10-02T18:49:35.806Z,4.67
2022-10-02T18:52:30.913Z,5.37
2022-10-02T18:55:09.713Z,5.30
2022-10-02T18:57:47.741Z,5.63
2022-10-02T19:00:19.797Z,6.10
2022-10-02T19:03:06.574Z,6.13
2022-10-02T19:05:38.782Z,6.10
2022-10-02T19:08:17.971Z,6.77
2022-10-02T19:10:47.933Z,6.80
2022-10-02T19:13:23.827Z,6.97
2022-10-02T19:15:54.247Z,7.23
2022-10-02T19:18:25.426Z,7.67
2022-10-02T19:20:57.661Z,6.80
2022-10-02T19:23:30.344Z,7.10
2022-10-02T19:26:03.219Z,6.57
2022-10-02T19:28:33.345Z,6.20
2022-10-02T19:31:05.519Z,6.50
2022-10-02T19:33:43.406Z,5.90
2022-10-02T19:36:18.971Z,6.93
2022-10-02T19:38:53.799Z,6.50
2022-10-02T19:41:22.745Z,7.07
2022-10-02T19:43:57.058Z,6.93
2022-10-02T19:46:37.186Z,7.40
2022-10-02T19:49:08.370Z,7.83
2022-10-02T19:51:44.840Z,7.93
2022-10-02T19:54:18.121Z,8.13
2022-10-02T19:56:47.531Z,7.03
2022-10-02T19:59:19.518Z,7.47
2022-10-02T20:01:51.969Z,6.93
2022-10-02T20:04:24.033Z,7.13
2022-10-02T20:06:56.909Z,6.57
2022-10-02T20:09:34.584Z,6.50
2022-10-02T20:12:08.336Z,5.70
2022-10-02T20:14:40.914Z,7.20
2022-10-02T20:17:10.218Z,5.87
2022-10-02T20:19:45.251Z,6.47
2022-10-02T20:22:22.727Z,5.60
2022-10-02T20:24:55.243Z,5.50
2022-10-02T20:27:29.144Z,4.67
2022-10-02T20:30:04.266Z,5.20
2022-10-02T20:32:37.396Z,5.97
2022-10-02T20:35:12.719Z,5.77
2022-10-02T20:37:43.031Z,5.40
2022-10-02T20:40:16.944Z,5.70
2022-10-02T20:42:53.333Z,5.10
2022-10-02T20:45:26.274Z,5.50
2022-10-02T20:48:25.128Z,5.33
2022-10-02T20:51:01.951Z,5.97
2022-10-02T20:54:07.932Z,5.60
2022-10-02T20:57:06.511Z,5.83
2022-10-02T21:00:12.327Z,6.20
2022-10-02T21:03:07.019Z,6.80
2022-10-02T21:06:17.883Z,7.50
2022-10-02T21:09:16.167Z,7.53
2022-10-02T21:12:05.316Z,7.77
2022-10-02T21:15:03.440Z,6.77
2022-10-02T21:18:06.969Z,7.07
2022-10-02T21:20:55.416Z,5.77
2022-10-02T21:24:07.136Z,6.27
2022-10-02T21:27:04.510Z,4.90
2022-10-02T21:29:59.988Z,5.80
2022-10-02T21:32:45.684Z,5.30
2022-10-02T21:35:31.268Z,5.23
2022-10-02T21:38:19.816Z,5.67
2022-10-02T21:41:27.218Z,5.87
2022-10-02T21:44:30.785Z,5.93
2022-10-02T21:47:28.538Z,5.40
2022-10-02T21:50:31.570Z,5.70
2022-10-02T21:53:33.078Z,4.90
2022-10-02T21:56:30.758Z,5.20
2022-10-02T21:59:31.545Z,5.20
2022-10-02T22:02:31.649Z,4.37
2022-10-02T22:05:30.280Z,4.27
2022-10-02T22:08:04.929Z,4.43
2022-10-02T22:10:44.291Z,3.97
2022-10-02T22:13:25.327Z,4.57
2022-10-02T22:16:04.255Z,4.70
2022-10-02T22:18:45.509Z,4.57
2022-10-02T22:21:26.313Z,4.20
2022-10-02T22:24:18.521Z,3.90
2022-10-02T22:27:03.857Z,4.00
2022-10-02T22:29:44.570Z,3.57
2022-10-02T22:32:48.751Z,3.57
2022-10-02T22:35:29.919Z,3.20
2022-10-02T22:38:11.237Z,2.97
2022-10-02T22:40:52.094Z,2.77
2022-10-02T22:43:30.133Z,2.30
2022-10-02T22:46:03.488Z,2.40
2022-10-02T22:48:40.057Z,2.60
2022-10-02T22:51:17.813Z,2.60
2022-10-02T22:53:50.714Z,2.23
2022-10-02T22:56:30.319Z,2.10
2022-10-02T22:59:07.312Z,2.43
2022-10-02T23:01:44.929Z,2.20
2022-10-02T23:04:21.625Z,2.43
2022-10-02T23:06:55.992Z,2.17
2022-10-02T23:09:29.104Z,1.90
2022-10-02T23:12:05.908Z,2.30
2022-10-02T23:14:45.417Z,2.30
2022-10-02T23:17:18.672Z,1.97
2022-10-02T23:19:49.741Z,2.20
2022-10-02T23:22:28.849Z,1.80
2022-10-02T23:25:05.360Z,2.10
2022-10-02T23:27:42.480Z,2.07
2022-10-02T23:30:13.800Z,2.33
2022-10-02T23:32:50.325Z,2.10
2022-10-02T23:35:27.357Z,2.40
2022-10-02T23:38:03.828Z,2.43
2022-10-02T23:40:52.304Z,3.57
2022-10-02T23:43:30.031Z,3.17
2022-10-02T23:46:03.808Z,2.63
2022-10-02T23:48:33.611Z,2.03
2022-10-02T23:51:15.320Z,3.03
2022-10-02T23:54:04.440Z,2.90
2022-10-02T23:56:56.539Z,3.03
2022-10-02T23:59:41.616Z,2.30
